createdAt,value
2023-05-22T00:02:57.209Z,12.20
2023-05-22T00:06:00.139Z,12.10
2023-05-22T00:09:01.751Z,11.90
2023-05-22T00:12:03.430Z,11.73
2023-05-22T00:15:05.962Z,12.63
2023-05-22T00:18:08.254Z,11.17
2023-05-22T00:21:10.679Z,11.87
2023-05-22T00:24:12.299Z,11.53
2023-05-22T00:27:13.721Z,12.47
2023-05-22T00:30:15.242Z,12.20
2023-05-22T00:33:16.705Z,12.10
2023-05-22T00:36:18.756Z,13.03
2023-05-22T00:39:20.259Z,12.87
2023-05-22T00:42:23.020Z,12.67
2023-05-22T00:45:24.675Z,12.57
2023-05-22T00:48:26.782Z,12.50
2023-05-22T00:51:29.557Z,12.63
2023-05-22T00:54:32.423Z,12.37
2023-05-22T00:57:33.896Z,12.10
2023-05-22T01:00:36.890Z,12.77
2023-05-22T01:03:44.544Z,13.17
2023-05-22T01:06:47.572Z,12.00
2023-05-22T01:09:49.096Z,11.60
2023-05-22T01:13:01.174Z,12.30
2023-05-22T01:16:14.766Z,11.67
2023-05-22T01:19:54.036Z,12.03
2023-05-22T01:23:13.478Z,12.33
2023-05-22T01:26:28.960Z,13.47
2023-05-22T01:29:42.335Z,16.37
2023-05-22T01:32:47.641Z,12.17
2023-05-22T01:35:54.024Z,12.87
2023-05-22T01:38:56.408Z,11.90
2023-05-22T01:41:58.310Z,12.70
2023-05-22T01:44:59.771Z,12.43
2023-05-22T01:48:01.242Z,12.00
2023-05-22T01:51:09.187Z,13.20
2023-05-22T01:54:36.945Z,12.53
2023-05-22T01:58:00.197Z,12.97
2023-05-22T02:01:03.513Z,12.50
2023-05-22T02:04:06.479Z,14.03
2023-05-22T02:07:12.423Z,13.30
2023-05-22T02:10:16.514Z,12.47
2023-05-22T02:13:18.512Z,15.73
2023-05-22T02:16:22.074Z,12.70
2023-05-22T02:19:24.580Z,13.17
2023-05-22T02:22:26.655Z,12.97
2023-05-22T02:25:28.169Z,15.10
2023-05-22T02:28:29.891Z,14.53
2023-05-22T02:31:31.377Z,12.60
2023-05-22T02:34:32.986Z,12.20
2023-05-22T02:37:34.501Z,12.37
2023-05-22T02:40:35.995Z,11.63
2023-05-22T02:43:37.481Z,12.93
2023-05-22T02:46:38.977Z,12.43
2023-05-22T02:49:40.692Z,14.30
2023-05-22T02:52:42.477Z,12.10
2023-05-22T02:55:44.000Z,14.73
2023-05-22T02:58:45.553Z,15.27
2023-05-22T03:01:48.389Z,11.87
2023-05-22T03:04:50.075Z,11.13
2023-05-22T03:07:52.754Z,13.30
2023-05-22T03:10:54.501Z,12.97
2023-05-22T03:13:56.437Z,12.67
2023-05-22T03:16:58.881Z,15.40
2023-05-22T03:20:00.422Z,13.97
2023-05-22T03:23:01.917Z,12.83
2023-05-22T03:26:03.387Z,16.37
2023-05-22T03:29:09.339Z,15.47
2023-05-22T03:32:14.444Z,14.00
2023-05-22T03:35:19.602Z,12.63
2023-05-22T03:38:21.153Z,12.80
2023-05-22T03:41:22.584Z,13.27
2023-05-22T03:44:24.426Z,14.00
2023-05-22T03:47:25.978Z,13.47
2023-05-22T03:50:27.526Z,12.73
2023-05-22T03:53:29.298Z,13.03
2023-05-22T03:56:30.761Z,13.07
2023-05-22T03:59:32.248Z,12.80
2023-05-22T04:02:33.766Z,13.20
2023-05-22T04:05:35.417Z,14.87
2023-05-22T04:08:37.006Z,16.27
2023-05-22T04:11:42.326Z,12.13
2023-05-22T04:14:43.846Z,11.60
2023-05-22T04:17:46.110Z,13.93
2023-05-22T04:20:47.770Z,13.53
2023-05-22T04:23:49.424Z,13.50
2023-05-22T04:26:50.868Z,13.67
2023-05-22T04:29:52.728Z,14.90
2023-05-22T04:32:54.219Z,13.37
2023-05-22T04:35:56.986Z,13.80
2023-05-22T04:39:00.291Z,13.67
2023-05-22T04:42:05.775Z,15.20
2023-05-22T04:45:09.076Z,13.90
2023-05-22T04:48:11.915Z,13.50
2023-05-22T04:51:14.375Z,13.13
2023-05-22T04:54:15.921Z,16.83
2023-05-22T04:57:21.249Z,13.80
2023-05-22T05:00:26.370Z,13.93
2023-05-22T05:03:28.564Z,14.30
2023-05-22T05:06:30.128Z,15.43
2023-05-22T05:09:31.776Z,17.23
2023-05-22T05:12:33.613Z,14.83
2023-05-22T05:15:35.373Z,15.43
2023-05-22T05:18:37.569Z,19.77
2023-05-22T05:21:39.562Z,14.40
2023-05-22T05:24:41.141Z,16.30
2023-05-22T05:27:42.669Z,16.20
2023-05-22T05:30:44.606Z,14.60
2023-05-22T05:34:05.727Z,15.80
2023-05-22T05:37:24.872Z,15.83
2023-05-22T05:40:27.552Z,16.23
2023-05-22T05:43:29.156Z,18.17
2023-05-22T05:46:36.395Z,16.43
2023-05-22T05:49:38.074Z,16.27
2023-05-22T05:52:41.318Z,16.27
2023-05-22T05:55:47.465Z,16.23
2023-05-22T05:58:49.327Z,17.17
2023-05-22T06:02:13.663Z,17.27
2023-05-22T06:05:19.004Z,17.30
2023-05-22T06:08:22.284Z,15.97
2023-05-22T06:11:24.074Z,15.50
2023-05-22T06:14:28.847Z,17.30
2023-05-22T06:17:30.342Z,17.73
2023-05-22T06:20:32.574Z,17.90
2023-05-22T06:23:34.165Z,18.40
2023-05-22T06:26:35.937Z,17.20
2023-05-22T06:29:37.569Z,19.30
2023-05-22T06:32:40.156Z,16.83
2023-05-22T06:35:43.071Z,20.03
2023-05-22T06:38:45.989Z,21.47
2023-05-22T06:42:07.814Z,16.03
2023-05-22T06:45:27.687Z,16.60
2023-05-22T06:48:49.361Z,19.97
2023-05-22T06:51:57.082Z,17.60
2023-05-22T06:55:04.435Z,16.53
2023-05-22T06:58:08.172Z,22.30
2023-05-22T07:01:10.977Z,18.03
2023-05-22T07:04:20.948Z,16.63
2023-05-22T07:07:31.155Z,18.87
2023-05-22T07:10:32.801Z,19.90
2023-05-22T07:13:34.612Z,17.20
2023-05-22T07:16:36.855Z,19.67
2023-05-22T07:19:38.768Z,18.77
2023-05-22T07:22:40.306Z,20.13
2023-05-22T07:25:42.984Z,18.33
2023-05-22T07:28:46.699Z,18.20
2023-05-22T07:31:49.419Z,19.73
2023-05-22T07:34:51.237Z,18.97
2023-05-22T07:37:53.151Z,18.30
2023-05-22T07:40:56.202Z,20.87
2023-05-22T07:43:59.034Z,18.87
2023-05-22T07:47:05.907Z,22.43
2023-05-22T07:50:09.264Z,18.83
2023-05-22T07:53:14.142Z,18.63
2023-05-22T07:56:18.166Z,19.07
2023-05-22T07:59:21.990Z,20.33
2023-05-22T08:02:24.774Z,20.20
2023-05-22T08:05:26.464Z,19.67
2023-05-22T08:08:28.897Z,19.20
2023-05-22T08:11:31.967Z,19.03
2023-05-22T08:14:33.537Z,19.70
2023-05-22T08:17:35.199Z,20.00
2023-05-22T08:20:38.208Z,19.30
2023-05-22T08:23:39.829Z,18.67
2023-05-22T08:26:43.060Z,20.47
2023-05-22T08:29:44.508Z,18.93
2023-05-22T08:32:45.966Z,18.23
2023-05-22T08:35:47.472Z,17.20
2023-05-22T08:38:48.918Z,17.80
2023-05-22T08:41:50.977Z,18.60
2023-05-22T08:44:52.904Z,17.13
2023-05-22T08:47:57.320Z,19.63
2023-05-22T08:51:04.719Z,17.87
2023-05-22T08:54:09.819Z,19.60
2023-05-22T08:57:11.653Z,21.63
2023-05-22T09:00:13.780Z,18.70
2023-05-22T09:03:15.761Z,17.53
2023-05-22T09:06:17.635Z,18.27
2023-05-22T09:09:19.541Z,18.98
2023-05-22T09:12:21.186Z,21.33
2023-05-22T09:15:22.633Z,17.58
2023-05-22T09:18:27.263Z,17.42
2023-05-22T09:21:30.641Z,19.05
2023-05-22T09:24:40.306Z,16.45
2023-05-22T09:27:45.698Z,17.35
2023-05-22T09:30:51.543Z,16.38
2023-05-22T09:33:53.971Z,18.88
2023-05-22T09:37:03.244Z,15.63
2023-05-22T09:40:11.027Z,14.83
2023-05-22T09:43:17.212Z,16.02
2023-05-22T09:46:18.775Z,17.97
2023-05-22T09:49:20.294Z,18.40
2023-05-22T09:52:23.524Z,17.13
2023-05-22T09:55:26.328Z,17.20
2023-05-22T09:58:31.074Z,16.77
2023-05-22T10:01:33.973Z,16.40
2023-05-22T10:04:36.738Z,17.50
2023-05-22T10:07:50.130Z,15.98
2023-05-22T10:10:53.106Z,20.13
2023-05-22T10:13:55.174Z,17.23
2023-05-22T10:17:01.986Z,19.08
2023-05-22T10:20:07.803Z,18.05
2023-05-22T10:23:14.920Z,17.85
2023-05-22T10:26:16.966Z,16.92
2023-05-22T10:29:42.028Z,16.73
2023-05-22T10:32:57.791Z,16.40
2023-05-22T10:36:04.700Z,17.13
2023-05-22T10:39:26.225Z,16.65
2023-05-22T10:42:34.312Z,15.80
2023-05-22T10:45:36.560Z,17.20
2023-05-22T10:48:47.767Z,18.77
2023-05-22T10:51:55.201Z,17.17
2023-05-22T10:55:00.124Z,17.13
2023-05-22T10:58:13.044Z,15.45
2023-05-22T11:01:16.364Z,15.35
2023-05-22T11:04:19.018Z,16.08
2023-05-22T11:07:25.567Z,18.63
2023-05-22T11:10:27.802Z,18.17
2023-05-22T11:13:29.612Z,15.52
2023-05-22T11:16:34.478Z,18.83
2023-05-22T11:19:36.573Z,17.50
2023-05-22T11:22:41.110Z,15.35
2023-05-22T11:25:42.763Z,16.83
2023-05-22T11:28:49.182Z,15.80
2023-05-22T11:31:50.825Z,15.95
2023-05-22T11:34:53.204Z,17.58
2023-05-22T11:37:56.117Z,13.63
2023-05-22T11:40:58.012Z,14.05
2023-05-22T11:44:00.422Z,14.23
2023-05-22T11:47:01.894Z,11.85
2023-05-22T11:50:06.547Z,13.38
2023-05-22T11:53:08.123Z,13.60
2023-05-22T11:56:09.602Z,12.20
2023-05-22T11:59:11.021Z,12.32
2023-05-22T12:02:13.588Z,12.70
2023-05-22T12:05:16.431Z,11.00
2023-05-22T12:08:18.191Z,11.65
2023-05-22T12:11:19.667Z,11.27
2023-05-22T12:14:26.222Z,11.80
2023-05-22T12:17:28.601Z,12.15
2023-05-22T12:20:31.060Z,12.50
2023-05-22T12:23:32.512Z,11.75
2023-05-22T12:26:34.574Z,13.15
2023-05-22T12:29:36.588Z,13.38
2023-05-22T12:32:39.819Z,11.88
2023-05-22T12:35:41.764Z,12.48
2023-05-22T12:38:43.472Z,14.07
2023-05-22T12:41:46.023Z,11.93
2023-05-22T12:44:47.673Z,12.38
2023-05-22T12:47:49.137Z,11.82
2023-05-22T12:50:50.663Z,11.18
2023-05-22T12:53:52.130Z,16.15
2023-05-22T12:56:53.539Z,12.00
2023-05-22T12:59:55.058Z,11.05
2023-05-22T13:02:56.631Z,12.13
2023-05-22T13:05:58.031Z,11.27
2023-05-22T13:09:02.365Z,13.00
2023-05-22T13:12:04.051Z,11.35
2023-05-22T13:15:06.617Z,14.57
2023-05-22T13:18:08.068Z,11.98
2023-05-22T13:21:09.612Z,12.65
2023-05-22T13:24:11.282Z,11.80
2023-05-22T13:27:13.058Z,10.95
2023-05-22T13:30:14.545Z,12.25
2023-05-22T13:33:16.290Z,11.38
2023-05-22T13:36:18.108Z,11.45
2023-05-22T13:39:19.595Z,13.35
2023-05-22T13:42:21.165Z,12.38
2023-05-22T13:45:22.818Z,11.10
2023-05-22T13:48:24.889Z,12.30
2023-05-22T13:51:26.374Z,10.18
2023-05-22T13:54:28.099Z,10.40
2023-05-22T13:57:29.538Z,13.82
2023-05-22T14:00:31.046Z,11.88
2023-05-22T14:03:32.619Z,10.27
2023-05-22T14:06:34.183Z,10.05
2023-05-22T14:09:35.616Z,10.40
2023-05-22T14:12:37.330Z,10.45
2023-05-22T14:15:38.985Z,10.02
2023-05-22T14:18:40.471Z,9.70
2023-05-22T14:21:41.896Z,12.05
2023-05-22T14:24:43.315Z,9.80
2023-05-22T14:27:44.838Z,10.32
2023-05-22T14:30:46.476Z,9.68
2023-05-22T14:33:47.927Z,10.23
2023-05-22T14:36:49.435Z,9.75
2023-05-22T14:39:50.898Z,10.05
2023-05-22T14:42:54.198Z,10.25
2023-05-22T14:45:57.835Z,10.98
2023-05-22T14:48:59.504Z,10.77
2023-05-22T14:52:01.512Z,12.18
2023-05-22T14:55:03.746Z,10.63
2023-05-22T14:58:05.192Z,10.15
2023-05-22T15:01:06.668Z,9.95
2023-05-22T15:04:08.841Z,10.07
2023-05-22T15:07:10.477Z,14.57
2023-05-22T15:10:12.438Z,10.50
2023-05-22T15:13:14.511Z,11.05
2023-05-22T15:16:16.387Z,12.52
2023-05-22T15:19:18.064Z,9.30
2023-05-22T15:22:20.232Z,9.90
2023-05-22T15:25:21.812Z,10.90
2023-05-22T15:28:23.259Z,10.50
2023-05-22T15:31:24.716Z,10.43
2023-05-22T15:34:26.132Z,9.00
2023-05-22T15:37:32.190Z,9.25
2023-05-22T15:40:34.103Z,9.05
2023-05-22T15:43:35.671Z,7.60
2023-05-22T15:46:37.297Z,13.13
2023-05-22T15:49:38.735Z,9.35
2023-05-22T15:52:40.480Z,8.10
2023-05-22T15:55:42.177Z,8.00
2023-05-22T15:58:43.852Z,8.18
2023-05-22T16:01:45.680Z,8.63
2023-05-22T16:04:48.589Z,9.85
2023-05-22T16:07:50.056Z,9.93
2023-05-22T16:10:51.568Z,9.82
2023-05-22T16:13:53.106Z,10.10
2023-05-22T16:16:55.121Z,11.45
2023-05-22T16:19:56.548Z,10.23
2023-05-22T16:22:57.969Z,10.93
2023-05-22T16:25:59.523Z,13.27
2023-05-22T16:29:01.091Z,14.35
2023-05-22T16:32:03.707Z,12.70
2023-05-22T16:35:06.199Z,12.35
2023-05-22T16:38:11.605Z,13.32
2023-05-22T16:41:13.105Z,11.95
2023-05-22T16:44:14.532Z,15.43
2023-05-22T16:47:15.957Z,11.25
2023-05-22T16:50:17.574Z,15.50
2023-05-22T16:53:19.618Z,10.27
2023-05-22T16:56:21.063Z,9.82
2023-05-22T16:59:22.541Z,9.05
2023-05-22T17:02:24.344Z,14.65
2023-05-22T17:05:25.943Z,9.02
2023-05-22T17:08:28.340Z,7.97
2023-05-22T17:11:30.023Z,8.23
2023-05-22T17:14:33.398Z,8.27
2023-05-22T17:17:34.883Z,9.23
2023-05-22T17:20:36.343Z,8.43
2023-05-22T17:23:40.174Z,9.65
2023-05-22T17:26:42.723Z,9.48
2023-05-22T17:29:44.187Z,10.75
2023-05-22T17:32:46.118Z,8.45
2023-05-22T17:35:47.788Z,8.13
2023-05-22T17:38:49.277Z,8.57
2023-05-22T17:41:51.167Z,8.48
2023-05-22T17:44:52.608Z,8.13
2023-05-22T17:47:54.168Z,8.40
2023-05-22T17:50:55.855Z,7.78
2023-05-22T17:53:58.897Z,8.60
2023-05-22T17:57:00.667Z,8.98
2023-05-22T18:00:05.222Z,7.97
2023-05-22T18:03:13.371Z,9.07
2023-05-22T18:06:14.934Z,7.30
2023-05-22T18:09:16.378Z,7.13
2023-05-22T18:12:31.219Z,6.97
2023-05-22T18:15:33.349Z,6.90
2023-05-22T18:18:34.847Z,7.87
2023-05-22T18:21:36.305Z,7.10
2023-05-22T18:24:38.222Z,6.77
2023-05-22T18:27:40.019Z,6.87
2023-05-22T18:30:44.513Z,8.17
2023-05-22T18:33:46.547Z,7.47
2023-05-22T18:36:50.800Z,6.37
2023-05-22T18:39:53.047Z,9.43
2023-05-22T18:42:54.795Z,6.87
2023-05-22T18:45:57.769Z,6.80
2023-05-22T18:48:59.249Z,6.83
2023-05-22T18:52:01.609Z,7.20
2023-05-22T18:55:03.163Z,8.43
2023-05-22T18:58:04.593Z,8.70
2023-05-22T19:01:06.128Z,6.30
2023-05-22T19:04:08.310Z,6.90
2023-05-22T19:07:09.819Z,6.73
2023-05-22T19:10:11.412Z,6.67
2023-05-22T19:13:12.959Z,8.50
2023-05-22T19:16:14.529Z,8.73
2023-05-22T19:19:16.166Z,8.07
2023-05-22T19:22:18.237Z,9.80
2023-05-22T19:25:21.023Z,9.77
2023-05-22T19:28:23.077Z,16.07
2023-05-22T19:31:28.241Z,10.47
2023-05-22T19:34:29.654Z,13.03
2023-05-22T19:37:31.106Z,11.30
2023-05-22T19:40:33.171Z,12.93
2023-05-22T19:43:34.804Z,11.00
2023-05-22T19:46:36.591Z,14.23
2023-05-22T19:49:38.106Z,13.73
2023-05-22T19:52:39.821Z,13.03
2023-05-22T19:55:41.463Z,12.53
2023-05-22T19:58:43.488Z,17.40
2023-05-22T20:01:44.946Z,13.40
2023-05-22T20:04:48.351Z,17.33
2023-05-22T20:07:49.944Z,16.20
2023-05-22T20:10:51.551Z,15.40
2023-05-22T20:13:54.362Z,17.57
2023-05-22T20:16:55.841Z,15.90
2023-05-22T20:20:01.309Z,15.37
2023-05-22T20:23:02.742Z,15.33
2023-05-22T20:26:04.830Z,18.43
2023-05-22T20:29:06.312Z,18.73
2023-05-22T20:32:08.644Z,16.33
2023-05-22T20:35:10.856Z,18.13
2023-05-22T20:38:14.151Z,15.30
2023-05-22T20:41:15.860Z,14.77
2023-05-22T20:44:23.418Z,15.77
2023-05-22T20:47:24.833Z,12.73
2023-05-22T20:50:26.285Z,14.23
2023-05-22T20:53:27.744Z,14.17
2023-05-22T20:56:29.928Z,14.30
2023-05-22T20:59:32.025Z,13.43
2023-05-22T21:02:33.479Z,14.07
2023-05-22T21:05:34.924Z,17.47
2023-05-22T21:08:36.382Z,17.57
2023-05-22T21:11:37.856Z,17.43
2023-05-22T21:14:40.128Z,16.83
2023-05-22T21:17:41.719Z,18.37
2023-05-22T21:20:43.426Z,24.00
2023-05-22T21:23:44.929Z,17.60
2023-05-22T21:26:46.557Z,21.87
2023-05-22T21:29:47.960Z,21.97
2023-05-22T21:32:49.425Z,21.00
2023-05-22T21:35:50.896Z,18.77
2023-05-22T21:38:53.076Z,22.50
2023-05-22T21:41:54.492Z,20.87
2023-05-22T21:44:55.920Z,22.53
2023-05-22T21:47:57.480Z,21.87
2023-05-22T21:50:59.011Z,22.30
2023-05-22T21:54:00.704Z,22.97
2023-05-22T21:57:02.135Z,24.10
2023-05-22T22:00:03.902Z,28.20
2023-05-22T22:03:06.713Z,27.37
2023-05-22T22:06:08.260Z,25.37
2023-05-22T22:09:09.739Z,28.57
2023-05-22T22:12:11.619Z,31.40
2023-05-22T22:15:13.113Z,33.30
2023-05-22T22:18:15.775Z,36.17
2023-05-22T22:21:26.423Z,39.73
2023-05-22T22:24:28.042Z,36.87
2023-05-22T22:27:29.510Z,35.80
2023-05-22T22:30:31.010Z,37.63
2023-05-22T22:33:32.846Z,38.60
2023-05-22T22:36:36.403Z,39.83
2023-05-22T22:39:38.257Z,48.87
2023-05-22T22:42:39.702Z,47.57
2023-05-22T22:45:41.619Z,52.47
2023-05-22T22:48:43.625Z,62.40
2023-05-22T22:51:45.070Z,49.40
2023-05-22T22:54:46.530Z,50.47
2023-05-22T22:57:49.827Z,55.73
2023-05-22T23:00:51.628Z,59.40
2023-05-22T23:03:53.145Z,55.63
2023-05-22T23:06:54.712Z,59.93
2023-05-22T23:09:56.135Z,55.60
2023-05-22T23:12:58.113Z,55.73
2023-05-22T23:15:59.762Z,62.73
2023-05-22T23:19:05.234Z,60.10
2023-05-22T23:22:06.805Z,63.23
2023-05-22T23:25:08.859Z,61.40
2023-05-22T23:28:10.280Z,59.17
2023-05-22T23:31:14.060Z,63.50
2023-05-22T23:34:15.874Z,59.97
2023-05-22T23:37:17.431Z,57.80
2023-05-22T23:40:18.874Z,63.50
2023-05-22T23:43:20.946Z,62.00
2023-05-22T23:46:24.144Z,53.67
2023-05-22T23:49:26.318Z,63.47
2023-05-22T23:52:27.832Z,59.13
2023-05-22T23:55:29.314Z,61.60
2023-05-22T23:58:31.949Z,59.83
